Buffalo, WY

10:18 AM MDT on August 22, 2014 (GMT -0600)
Esponda Ranch | Change Station
CLOSE
Current Station
Personal Weather Station
Location: Buffalo, WY
Elevation: 4665 ft
Nearby Weather Stations

Elev 4665 ft 44.32 °N, 106.67 °W | Updated 7 minutes ago

Overcast
Overcast
63.6 °F
Feels Like 63.6 °F
N
9.0
Wind Variable Wind from SE
Gusts 15.0 mph

Today
High -- | Low -- °F
--% Chance of Precip.
Yesterday
High -- | Low -- °F
Precip. -- in
6:18 AM 8:00 PM
Waning Crescent, 8% visible
Pressure 30.01 in
Visibility 10.0 miles
Clouds Scattered Clouds 1200 ft
Overcast 2400 ft
Dew Point 58 °F
Humidity 82%
Rainfall 0.00 in
Snow Depth 1 in , 0 in
UV 1 out of 12
Pollen 6.70 out of 12
Air Quality Not available.
Flu Activity Not available.
METAR KBYG 221553Z AUTO 15010KT 10SM SCT012 OVC024 16/12 A3012 RMK AO2 SLP163 T01610122

More Conditions Fewer Conditions

Pressure 30.01 in
Visibility 10.0 miles
Clouds Scattered Clouds 1200 ft
Overcast 2400 ft
Dew Point 58 °F
Humidity 82%
Rainfall 0.00 in
Snow Depth 1 in , 0 in
UV 1 out of 12
Pollen 6.70 out of 12
Air Quality Not available.
Flu Activity Not available.
METAR KBYG 221553Z AUTO 15010KT 10SM SCT012 OVC024 16/12 A3012 RMK AO2 SLP163 T01610122

More Conditions Fewer Conditions

10-Day Weather Forecast

Almanac

Astronomy

Aug. 22, 2014 Rise Set
Actual Time 6:18 AM MDT 8:00 PM MDT
Civil Twilight 5:47 AM MDT 8:31 PM MDT
Nautical Twilight 5:09 AM MDT 9:08 PM MDT
Astronomical Twilight 4:29 AM MDT 9:48 PM MDT
Moon 3:40 AM MDT 6:12 PM MDT
Length of Visible Light 14h 43m
Length of Day
13h 42m
Tomorrow will be 2m 51s shorter.
Waning Crescent, 8% of the Moon is Illuminated
Today
Waning Crescent
Aug 25
New
Sep 2
First Quarter
Sep 8
Full
Sep 15
Last Quarter

Today's Extremes

State Highs State Lows

Community

WunderPhotos

Upload Photos

1,746,194 photos uploaded!

Nearby

Snow Depth

Station Depth Elevation
Hansen Sawmill 1 in 8360 ft
Cloud Peak Reservoir 0 in 9860 ft
Powder River Pass 0 in 9480 ft
Big Goose 0 in 7990 ft
Dome Lake 0 in 8880 ft

Earthquake Activity

City Distance Mag. Time & Date
No recent earthquake activity has been reported nearby.
Minimum magnitude displayed is 2.5.

Coastal Water Temperatures

Place Temperature
No Stations Reporting

Nearby Weather Stations